Nearby METAR Reports

 

KSJC - San Jose, California, USA
Distance from station: NE 14km
Updated: 18/07/2024 00:53
Clear
Clear
 Wind from NNW
Wind: NNW 15 km/h
Temperature: 20°C
Dew Point: 13°C
Humidity: 64%
Barometer: 1015.9 hPa
Clouds: Clear
Visibility: 16 km
2024/07/18 03:53 KSJC 180353Z 33008KT 10SM CLR 20/13 A3000 RMK AO2 SLP156 T02000133
KNUQ - Moffett Nas/Mtn, California, USA
Distance from station: N 14km
Updated: 18/07/2024 01:30
Clear
Clear
 Wind from N
Wind: N 15 km/h
Temperature: 18°C
Dew Point: 14°C
Humidity: 78%
Barometer: 1016.3 hPa
Clouds: Clear
Visibility: 16 km
2024/07/18 04:30 KNUQ 180430Z AUTO 35008KT 10SM CLR 18/14 A3001 RMK AO2
 
KPAO - Palo Alto, California, USA
Distance from station: NNW 23km
Updated: 18/07/2024 00:47
Clear
Clear
 Wind from NNW
Wind: NNW 19 km/h
Temperature: 18°C
Dew Point: 14°C
Humidity: 78%
Barometer: 1015.9 hPa
Clouds: Clear
Visibility: 16 km
2024/07/18 03:47 KPAO 180347Z 33010KT 10SM SKC 18/14 A3000 RMK LAST
KRHV - San Jose/Reid, California, USA
Distance from station: ENE 19km
Updated: 17/07/2024 23:47
NOT Current
Clear
Clear
 Wind from WNW
Wind: WNW 19 km/h
Temperature: 23°C
Dew Point: 13°C
Humidity: 53%
Barometer: 1015.2 hPa
Clouds: Clear
Visibility: 16 km
2024/07/18 02:47 KRHV 180247Z 30010KT 10SM SKC 23/13 A2998
 
KOAK - Oakland, California, USA
Distance from station: NNW 50km
Updated: 18/07/2024 00:53
Few Clouds
Few Clouds
 Wind from W
Wind: W 22 km/h
Temperature: 17°C
Dew Point: 14°C
Humidity: 83%
Barometer: 1016.3 hPa
Clouds: Few Clouds
Visibility: 16 km
Cloud details: Few Clouds 366 m
2024/07/18 03:53 KOAK 180353Z 28012KT 10SM FEW012 17/14 A3001 RMK AO2 SLP160 T01720144
KSQL - San Carlos Airpo, California, USA
Distance from station: NW 34km
Updated: 17/07/2024 23:47
NOT Current
Clear
Clear
 Wind from NW
Wind: NW 19 km/h
Temperature: 22°C
Dew Point: 13°C
Humidity: 57%
Barometer: 1015.6 hPa
Clouds: Clear
Visibility: 16 km
2024/07/18 02:47 KSQL 180247Z 31010KT 10SM CLR 22/13 A2999
 
KSFO - San Francisco, California, USA
Distance from station: NW 49km
Updated: 18/07/2024 00:56
Few Clouds
Few Clouds
 Wind from WNW
Wind: WNW 28 km/h
Temperature: 14°C
Dew Point: 13°C
Humidity: 94%
Barometer: 1015.9 hPa
Clouds: Few Clouds
Visibility: 16 km
Cloud details: Few Clouds 122 m
2024/07/18 03:56 KSFO 180356Z 30015KT 10SM FEW004 14/13 A3000 RMK AO2 SLP159 T01440128
KE16 - San Martin, California, USA
Distance from station: ESE 43km
Updated: 18/07/2024 01:15
Clear
Clear
 Wind from NNW
Wind: NNW 17 km/h, Gust: 30 km/h
Temperature: 22°C
Dew Point: 13°C
Humidity: 57%
Barometer: 1015.9 hPa
Clouds: Clear
Visibility: 16 km
2024/07/18 04:15 KE16 180415Z AUTO 33009G16KT 10SM CLR 22/13 A3000 RMK AO2 PWINO PNO
 
KWVI - Watsonville, California, USA
Distance from station: SSE 44km
Updated: 18/07/2024 00:53
Clear
Clear
 Wind from S
Wind: S 7 km/h
Temperature: 16°C
Dew Point: 13°C
Humidity: 83%
Barometer: 1015.6 hPa
Clouds: Clear
Visibility: 16 km
2024/07/18 03:53 KWVI 180353Z AUTO 19004KT 10SM CLR 16/13 A2999 RMK AO2 SLP156 T01560133
KHAF - Half Moon Bay, California, USA
Distance from station: WNW 50km
Updated: 18/07/2024 00:15
NOT Current
Overcast
Overcast
 Wind from NNW
Wind: NNW 19 km/h
Temperature: 15°C
Dew Point: 15°C
Humidity: 100%
Barometer: 1016.6 hPa
Clouds: Overcast
Visibility: 13 km
Cloud details: Overcast 152 m
2024/07/18 03:15 KHAF 180315Z AUTO 33010KT 8SM OVC005 15/15 A3002 RMK AO2
 
KHWD - Hayward, California, USA
Distance from station: N 44km
Updated: 18/07/2024 00:54
Clear
Clear
 Wind from WNW
Wind: WNW 13 km/h
Temperature: 18°C
Dew Point: 13°C
Humidity: 73%
Barometer: 1015.9 hPa
Clouds: Clear
Visibility: 16 km
2024/07/18 03:54 KHWD 180354Z 29007KT 10SM CLR 18/13 A3000 RMK AO2 SLP168 T01780133
KLVK - Livermore, California, USA
Distance from station: NNE 51km
Updated: 18/07/2024 00:53
Clear
Clear
 Wind from NW
Wind: NW 15 km/h
Temperature: 21°C
Dew Point: 13°C
Humidity: 60%
Barometer: 1014.9 hPa
Clouds: Clear
Visibility: 16 km
2024/07/18 03:53 KLVK 180353Z 31008KT 10SM CLR 21/13 A2997 RMK AO2 SLP147 T02060128